sensor_id;sensor_type;location;lat;lon;timestamp;temperature;humidity
75786;DHT22;64402;44.708;37.644;2024-03-25T00:00:15;5.50;82.53
75786;DHT22;64402;44.708;37.644;2024-03-25T00:02:42;5.51;82.98
75786;DHT22;64402;44.708;37.644;2024-03-25T00:05:09;5.56;82.36
75786;DHT22;64402;44.708;37.644;2024-03-25T00:07:36;5.59;81.99
75786;DHT22;64402;44.708;37.644;2024-03-25T00:10:04;5.34;78.75
75786;DHT22;64402;44.708;37.644;2024-03-25T00:12:32;5.13;79.13
75786;DHT22;64402;44.708;37.644;2024-03-25T00:14:59;4.96;78.55
75786;DHT22;64402;44.708;37.644;2024-03-25T00:17:25;4.96;80.30
75786;DHT22;64402;44.708;37.644;2024-03-25T00:19:52;5.02;80.39
75786;DHT22;64402;44.708;37.644;2024-03-25T00:22:18;5.04;80.67
75786;DHT22;64402;44.708;37.644;2024-03-25T00:24:48;5.05;79.72
75786;DHT22;64402;44.708;37.644;2024-03-25T00:27:15;4.96;79.77
75786;DHT22;64402;44.708;37.644;2024-03-25T00:29:41;4.94;79.06
75786;DHT22;64402;44.708;37.644;2024-03-25T00:32:08;4.87;78.67
75786;DHT22;64402;44.708;37.644;2024-03-25T00:34:34;4.88;78.18
75786;DHT22;64402;44.708;37.644;2024-03-25T00:37:01;4.91;78.64
75786;DHT22;64402;44.708;37.644;2024-03-25T00:39:27;4.92;78.88
75786;DHT22;64402;44.708;37.644;2024-03-25T00:41:55;4.89;78.85
75786;DHT22;64402;44.708;37.644;2024-03-25T00:44:21;4.77;79.10
75786;DHT22;64402;44.708;37.644;2024-03-25T00:46:47;4.69;79.43
75786;DHT22;64402;44.708;37.644;2024-03-25T00:49:13;4.63;79.57
75786;DHT22;64402;44.708;37.644;2024-03-25T00:51:40;4.67;79.67
75786;DHT22;64402;44.708;37.644;2024-03-25T00:54:06;4.66;78.99
75786;DHT22;64402;44.708;37.644;2024-03-25T00:56:33;4.67;79.63
75786;DHT22;64402;44.708;37.644;2024-03-25T00:58:59;4.63;79.63
75786;DHT22;64402;44.708;37.644;2024-03-25T01:01:29;4.59;79.52
75786;DHT22;64402;44.708;37.644;2024-03-25T01:03:55;4.54;81.68
75786;DHT22;64402;44.708;37.644;2024-03-25T01:06:21;4.57;81.77
75786;DHT22;64402;44.708;37.644;2024-03-25T01:08:49;4.63;81.21
75786;DHT22;64402;44.708;37.644;2024-03-25T01:11:16;4.62;79.24
75786;DHT22;64402;44.708;37.644;2024-03-25T01:13:42;4.50;79.59
75786;DHT22;64402;44.708;37.644;2024-03-25T01:16:09;4.49;79.73
75786;DHT22;64402;44.708;37.644;2024-03-25T01:18:36;4.46;79.84
75786;DHT22;64402;44.708;37.644;2024-03-25T01:21:02;4.44;80.71
75786;DHT22;64402;44.708;37.644;2024-03-25T01:23:29;4.51;80.85
75786;DHT22;64402;44.708;37.644;2024-03-25T01:25:55;4.48;80.28
75786;DHT22;64402;44.708;37.644;2024-03-25T01:28:21;4.43;80.61
75786;DHT22;64402;44.708;37.644;2024-03-25T01:30:48;4.32;81.05
75786;DHT22;64402;44.708;37.644;2024-03-25T01:33:15;4.37;81.01
75786;DHT22;64402;44.708;37.644;2024-03-25T01:35:41;4.39;80.40
75786;DHT22;64402;44.708;37.644;2024-03-25T01:38:08;4.41;80.36
75786;DHT22;64402;44.708;37.644;2024-03-25T01:40:34;4.43;80.40
75786;DHT22;64402;44.708;37.644;2024-03-25T01:43:02;4.36;80.92
75786;DHT22;64402;44.708;37.644;2024-03-25T01:45:30;4.32;81.65
75786;DHT22;64402;44.708;37.644;2024-03-25T01:47:57;4.35;81.75
75786;DHT22;64402;44.708;37.644;2024-03-25T01:50:24;4.39;82.71
75786;DHT22;64402;44.708;37.644;2024-03-25T01:52:51;4.43;82.42
75786;DHT22;64402;44.708;37.644;2024-03-25T01:55:21;4.44;83.04
75786;DHT22;64402;44.708;37.644;2024-03-25T01:57:48;4.46;83.00
75786;DHT22;64402;44.708;37.644;2024-03-25T02:00:15;4.49;82.29
75786;DHT22;64402;44.708;37.644;2024-03-25T02:02:42;4.48;81.78
75786;DHT22;64402;44.708;37.644;2024-03-25T02:05:17;4.38;81.94
75786;DHT22;64402;44.708;37.644;2024-03-25T02:07:44;4.32;81.85
75786;DHT22;64402;44.708;37.644;2024-03-25T02:10:11;4.28;82.29
75786;DHT22;64402;44.708;37.644;2024-03-25T02:12:44;4.27;82.53
75786;DHT22;64402;44.708;37.644;2024-03-25T02:15:12;4.32;82.46
75786;DHT22;64402;44.708;37.644;2024-03-25T02:17:39;4.32;82.91
75786;DHT22;64402;44.708;37.644;2024-03-25T02:20:06;4.30;83.43
75786;DHT22;64402;44.708;37.644;2024-03-25T02:22:35;4.27;83.12
75786;DHT22;64402;44.708;37.644;2024-03-25T02:25:09;4.26;83.87
75786;DHT22;64402;44.708;37.644;2024-03-25T02:27:38;4.28;84.03
75786;DHT22;64402;44.708;37.644;2024-03-25T02:30:09;4.31;84.03
75786;DHT22;64402;44.708;37.644;2024-03-25T02:32:38;4.30;83.80
75786;DHT22;64402;44.708;37.644;2024-03-25T02:35:07;4.36;83.44
75786;DHT22;64402;44.708;37.644;2024-03-25T02:37:37;4.37;83.03
75786;DHT22;64402;44.708;37.644;2024-03-25T02:40:05;4.38;82.27
75786;DHT22;64402;44.708;37.644;2024-03-25T02:42:33;4.35;82.24
75786;DHT22;64402;44.708;37.644;2024-03-25T02:44:59;4.36;81.97
75786;DHT22;64402;44.708;37.644;2024-03-25T02:47:26;4.28;81.53
75786;DHT22;64402;44.708;37.644;2024-03-25T02:49:52;4.18;81.34
75786;DHT22;64402;44.708;37.644;2024-03-25T02:52:19;4.06;81.88
75786;DHT22;64402;44.708;37.644;2024-03-25T02:54:45;3.91;82.98
75786;DHT22;64402;44.708;37.644;2024-03-25T02:57:12;3.79;81.97
75786;DHT22;64402;44.708;37.644;2024-03-25T02:59:38;3.63;81.95
75786;DHT22;64402;44.708;37.644;2024-03-25T03:02:04;3.68;82.52
75786;DHT22;64402;44.708;37.644;2024-03-25T03:04:30;3.74;82.00
75786;DHT22;64402;44.708;37.644;2024-03-25T03:06:57;3.76;81.92
75786;DHT22;64402;44.708;37.644;2024-03-25T03:09:23;3.69;81.65
75786;DHT22;64402;44.708;37.644;2024-03-25T03:11:49;3.70;82.38
75786;DHT22;64402;44.708;37.644;2024-03-25T03:14:16;3.72;81.88
75786;DHT22;64402;44.708;37.644;2024-03-25T03:16:42;3.76;81.61
75786;DHT22;64402;44.708;37.644;2024-03-25T03:19:08;3.83;81.91
75786;DHT22;64402;44.708;37.644;2024-03-25T03:21:35;3.87;82.75
75786;DHT22;64402;44.708;37.644;2024-03-25T03:24:03;3.89;81.79
75786;DHT22;64402;44.708;37.644;2024-03-25T03:26:29;3.86;81.77
75786;DHT22;64402;44.708;37.644;2024-03-25T03:28:56;3.85;81.68
75786;DHT22;64402;44.708;37.644;2024-03-25T03:31:23;3.77;81.91
75786;DHT22;64402;44.708;37.644;2024-03-25T03:33:50;3.79;82.01
75786;DHT22;64402;44.708;37.644;2024-03-25T03:36:18;3.77;82.01
75786;DHT22;64402;44.708;37.644;2024-03-25T03:38:44;3.80;81.95
75786;DHT22;64402;44.708;37.644;2024-03-25T03:41:10;3.74;82.71
75786;DHT22;64402;44.708;37.644;2024-03-25T03:43:37;3.82;82.81
75786;DHT22;64402;44.708;37.644;2024-03-25T03:46:03;3.84;82.33
75786;DHT22;64402;44.708;37.644;2024-03-25T03:48:30;3.85;82.36
75786;DHT22;64402;44.708;37.644;2024-03-25T03:50:56;3.88;82.40
75786;DHT22;64402;44.708;37.644;2024-03-25T03:53:23;3.93;82.26
75786;DHT22;64402;44.708;37.644;2024-03-25T03:55:57;4.02;82.11
75786;DHT22;64402;44.708;37.644;2024-03-25T03:58:24;4.07;81.81
75786;DHT22;64402;44.708;37.644;2024-03-25T04:00:51;4.13;81.46
75786;DHT22;64402;44.708;37.644;2024-03-25T04:03:19;4.14;81.11
75786;DHT22;64402;44.708;37.644;2024-03-25T04:05:45;4.14;81.39
75786;DHT22;64402;44.708;37.644;2024-03-25T04:08:12;4.18;81.16
75786;DHT22;64402;44.708;37.644;2024-03-25T04:10:39;4.19;81.62
75786;DHT22;64402;44.708;37.644;2024-03-25T04:13:07;4.21;81.43
75786;DHT22;64402;44.708;37.644;2024-03-25T04:15:36;4.26;81.65
75786;DHT22;64402;44.708;37.644;2024-03-25T04:18:03;4.31;81.75
75786;DHT22;64402;44.708;37.644;2024-03-25T04:20:36;4.43;81.59
75786;DHT22;64402;44.708;37.644;2024-03-25T04:23:03;4.54;81.42
75786;DHT22;64402;44.708;37.644;2024-03-25T04:25:30;4.60;81.34
75786;DHT22;64402;44.708;37.644;2024-03-25T04:27:57;4.66;81.32
75786;DHT22;64402;44.708;37.644;2024-03-25T04:30:23;4.76;81.10
75786;DHT22;64402;44.708;37.644;2024-03-25T04:32:49;4.81;81.55
75786;DHT22;64402;44.708;37.644;2024-03-25T04:35:15;4.84;82.07
75786;DHT22;64402;44.708;37.644;2024-03-25T04:37:41;4.93;82.14
75786;DHT22;64402;44.708;37.644;2024-03-25T04:40:08;5.07;81.65
75786;DHT22;64402;44.708;37.644;2024-03-25T04:42:34;5.18;81.97
75786;DHT22;64402;44.708;37.644;2024-03-25T04:45:00;5.25;82.01
75786;DHT22;64402;44.708;37.644;2024-03-25T04:47:27;5.36;82.42
75786;DHT22;64402;44.708;37.644;2024-03-25T04:49:53;5.47;81.86
75786;DHT22;64402;44.708;37.644;2024-03-25T04:52:19;5.55;83.61
75786;DHT22;64402;44.708;37.644;2024-03-25T04:54:49;5.63;83.32
75786;DHT22;64402;44.708;37.644;2024-03-25T04:57:15;5.76;82.42
75786;DHT22;64402;44.708;37.644;2024-03-25T04:59:42;5.91;82.41
75786;DHT22;64402;44.708;37.644;2024-03-25T05:02:08;6.02;83.32
75786;DHT22;64402;44.708;37.644;2024-03-25T05:04:34;6.16;82.94
75786;DHT22;64402;44.708;37.644;2024-03-25T05:07:01;6.28;82.57
75786;DHT22;64402;44.708;37.644;2024-03-25T05:09:27;6.41;81.59
75786;DHT22;64402;44.708;37.644;2024-03-25T05:11:53;6.53;81.17
75786;DHT22;64402;44.708;37.644;2024-03-25T05:14:19;6.59;81.64
75786;DHT22;64402;44.708;37.644;2024-03-25T05:16:46;6.71;80.66
75786;DHT22;64402;44.708;37.644;2024-03-25T05:19:12;6.85;80.14
75786;DHT22;64402;44.708;37.644;2024-03-25T05:21:38;6.95;79.24
75786;DHT22;64402;44.708;37.644;2024-03-25T05:24:04;7.07;78.64
75786;DHT22;64402;44.708;37.644;2024-03-25T05:26:31;7.17;79.47
75786;DHT22;64402;44.708;37.644;2024-03-25T05:28:57;7.27;78.07
75786;DHT22;64402;44.708;37.644;2024-03-25T05:31:23;7.37;77.02
75786;DHT22;64402;44.708;37.644;2024-03-25T05:33:50;7.47;76.31
75786;DHT22;64402;44.708;37.644;2024-03-25T05:36:16;7.59;76.89
75786;DHT22;64402;44.708;37.644;2024-03-25T05:38:43;7.69;75.42
75786;DHT22;64402;44.708;37.644;2024-03-25T05:41:09;7.83;75.13
75786;DHT22;64402;44.708;37.644;2024-03-25T05:43:36;7.93;73.62
75786;DHT22;64402;44.708;37.644;2024-03-25T05:46:03;8.07;73.07
75786;DHT22;64402;44.708;37.644;2024-03-25T05:48:29;8.22;72.15
75786;DHT22;64402;44.708;37.644;2024-03-25T05:53:28;8.46;71.48
75786;DHT22;64402;44.708;37.644;2024-03-25T05:55:55;8.58;70.31
75786;DHT22;64402;44.708;37.644;2024-03-25T05:58:22;8.67;69.23
75786;DHT22;64402;44.708;37.644;2024-03-25T06:00:49;8.79;67.62
75786;DHT22;64402;44.708;37.644;2024-03-25T06:03:16;8.95;67.40
75786;DHT22;64402;44.708;37.644;2024-03-25T06:05:43;9.16;66.30
75786;DHT22;64402;44.708;37.644;2024-03-25T06:08:09;9.29;66.14
75786;DHT22;64402;44.708;37.644;2024-03-25T06:10:44;9.42;66.14
75786;DHT22;64402;44.708;37.644;2024-03-25T06:13:10;9.59;62.53
75786;DHT22;64402;44.708;37.644;2024-03-25T06:15:36;9.81;60.85
75786;DHT22;64402;44.708;37.644;2024-03-25T06:18:03;9.95;58.84
75786;DHT22;64402;44.708;37.644;2024-03-25T06:20:29;10.07;58.91
75786;DHT22;64402;44.708;37.644;2024-03-25T06:22:55;10.19;57.61
75786;DHT22;64402;44.708;37.644;2024-03-25T06:25:21;10.30;57.27
75786;DHT22;64402;44.708;37.644;2024-03-25T06:27:48;10.42;55.89
75786;DHT22;64402;44.708;37.644;2024-03-25T06:30:14;10.58;55.93
75786;DHT22;64402;44.708;37.644;2024-03-25T06:32:59;10.73;54.33
75786;DHT22;64402;44.708;37.644;2024-03-25T06:35:43;10.86;53.17
75786;DHT22;64402;44.708;37.644;2024-03-25T06:38:10;10.98;52.71
75786;DHT22;64402;44.708;37.644;2024-03-25T06:40:37;11.08;51.70
75786;DHT22;64402;44.708;37.644;2024-03-25T06:43:04;11.16;51.80
75786;DHT22;64402;44.708;37.644;2024-03-25T06:45:31;11.28;51.88
75786;DHT22;64402;44.708;37.644;2024-03-25T06:47:58;11.38;50.54
75786;DHT22;64402;44.708;37.644;2024-03-25T06:50:24;11.45;51.62
75786;DHT22;64402;44.708;37.644;2024-03-25T06:52:50;11.51;51.04
75786;DHT22;64402;44.708;37.644;2024-03-25T06:55:17;11.61;47.28
75786;DHT22;64402;44.708;37.644;2024-03-25T06:57:48;11.73;48.41
75786;DHT22;64402;44.708;37.644;2024-03-25T07:00:15;11.83;47.16
75786;DHT22;64402;44.708;37.644;2024-03-25T07:02:41;11.96;47.09
75786;DHT22;64402;44.708;37.644;2024-03-25T07:05:07;12.03;44.28
75786;DHT22;64402;44.708;37.644;2024-03-25T07:07:34;12.15;42.52
75786;DHT22;64402;44.708;37.644;2024-03-25T07:10:01;12.22;44.01
75786;DHT22;64402;44.708;37.644;2024-03-25T07:12:27;12.32;44.16
75786;DHT22;64402;44.708;37.644;2024-03-25T07:14:54;12.45;42.92
75786;DHT22;64402;44.708;37.644;2024-03-25T07:17:20;12.56;43.52
75786;DHT22;64402;44.708;37.644;2024-03-25T07:19:48;12.65;41.57
75786;DHT22;64402;44.708;37.644;2024-03-25T07:22:14;12.73;42.15
75786;DHT22;64402;44.708;37.644;2024-03-25T07:24:40;12.90;44.20
75786;DHT22;64402;44.708;37.644;2024-03-25T07:27:06;12.94;41.65
75786;DHT22;64402;44.708;37.644;2024-03-25T07:29:34;13.06;43.82
75786;DHT22;64402;44.708;37.644;2024-03-25T07:32:00;13.23;42.16
75786;DHT22;64402;44.708;37.644;2024-03-25T07:34:26;13.40;40.31
75786;DHT22;64402;44.708;37.644;2024-03-25T07:36:52;13.65;40.90
75786;DHT22;64402;44.708;37.644;2024-03-25T07:39:18;13.99;39.54
75786;DHT22;64402;44.708;37.644;2024-03-25T07:41:44;14.57;37.27
75786;DHT22;64402;44.708;37.644;2024-03-25T07:44:11;15.23;37.02
75786;DHT22;64402;44.708;37.644;2024-03-25T07:46:37;15.99;35.37
75786;DHT22;64402;44.708;37.644;2024-03-25T07:49:03;16.56;34.60
75786;DHT22;64402;44.708;37.644;2024-03-25T07:51:29;16.86;33.83
75786;DHT22;64402;44.708;37.644;2024-03-25T07:53:55;17.25;31.46
75786;DHT22;64402;44.708;37.644;2024-03-25T07:56:24;17.41;29.92
75786;DHT22;64402;44.708;37.644;2024-03-25T07:58:50;17.96;31.11
75786;DHT22;64402;44.708;37.644;2024-03-25T08:01:16;17.96;29.97
75786;DHT22;64402;44.708;37.644;2024-03-25T08:03:42;18.10;29.97
75786;DHT22;64402;44.708;37.644;2024-03-25T08:06:09;18.97;30.41
75786;DHT22;64402;44.708;37.644;2024-03-25T08:08:35;19.32;28.35
75786;DHT22;64402;44.708;37.644;2024-03-25T08:11:01;19.57;27.26
75786;DHT22;64402;44.708;37.644;2024-03-25T08:13:28;19.88;28.24
75786;DHT22;64402;44.708;37.644;2024-03-25T08:15:54;19.97;28.29
75786;DHT22;64402;44.708;37.644;2024-03-25T08:18:20;20.06;27.83
75786;DHT22;64402;44.708;37.644;2024-03-25T08:20:46;20.30;27.32
75786;DHT22;64402;44.708;37.644;2024-03-25T08:23:12;20.64;26.63
75786;DHT22;64402;44.708;37.644;2024-03-25T08:25:39;21.08;26.99
75786;DHT22;64402;44.708;37.644;2024-03-25T08:28:05;21.32;26.13
75786;DHT22;64402;44.708;37.644;2024-03-25T08:30:31;21.70;25.72
75786;DHT22;64402;44.708;37.644;2024-03-25T08:32:57;21.62;25.09
75786;DHT22;64402;44.708;37.644;2024-03-25T08:35:23;22.01;24.49
75786;DHT22;64402;44.708;37.644;2024-03-25T08:37:50;22.58;23.56
75786;DHT22;64402;44.708;37.644;2024-03-25T08:40:16;22.75;23.72
75786;DHT22;64402;44.708;37.644;2024-03-25T08:42:42;22.91;22.79
75786;DHT22;64402;44.708;37.644;2024-03-25T08:45:09;22.94;23.43
75786;DHT22;64402;44.708;37.644;2024-03-25T08:47:36;22.73;23.03
75786;DHT22;64402;44.708;37.644;2024-03-25T08:50:04;22.71;21.68
75786;DHT22;64402;44.708;37.644;2024-03-25T08:52:30;22.77;22.13
75786;DHT22;64402;44.708;37.644;2024-03-25T08:54:56;23.05;22.24
75786;DHT22;64402;44.708;37.644;2024-03-25T08:57:23;23.30;21.53
75786;DHT22;64402;44.708;37.644;2024-03-25T08:59:49;23.47;21.12
75786;DHT22;64402;44.708;37.644;2024-03-25T09:02:15;23.75;21.16
75786;DHT22;64402;44.708;37.644;2024-03-25T09:04:41;24.90;20.86
75786;DHT22;64402;44.708;37.644;2024-03-25T09:07:07;24.88;20.50
75786;DHT22;64402;44.708;37.644;2024-03-25T09:09:34;24.69;20.24
75786;DHT22;64402;44.708;37.644;2024-03-25T09:12:19;24.11;22.08
75786;DHT22;64402;44.708;37.644;2024-03-25T09:14:45;24.00;22.26
75786;DHT22;64402;44.708;37.644;2024-03-25T09:17:11;23.57;22.68
75786;DHT22;64402;44.708;37.644;2024-03-25T09:19:38;23.43;23.39
75786;DHT22;64402;44.708;37.644;2024-03-25T09:22:04;23.30;24.02
75786;DHT22;64402;44.708;37.644;2024-03-25T09:24:31;23.18;24.75
75786;DHT22;64402;44.708;37.644;2024-03-25T09:26:57;22.98;23.66
75786;DHT22;64402;44.708;37.644;2024-03-25T09:29:23;23.64;23.38
75786;DHT22;64402;44.708;37.644;2024-03-25T09:31:50;23.58;23.11
75786;DHT22;64402;44.708;37.644;2024-03-25T09:34:16;23.37;23.04
75786;DHT22;64402;44.708;37.644;2024-03-25T09:36:42;22.73;24.39
75786;DHT22;64402;44.708;37.644;2024-03-25T09:39:08;22.99;23.56
75786;DHT22;64402;44.708;37.644;2024-03-25T09:41:41;22.99;24.26
75786;DHT22;64402;44.708;37.644;2024-03-25T09:44:08;23.20;24.40
75786;DHT22;64402;44.708;37.644;2024-03-25T09:46:36;23.10;24.20
75786;DHT22;64402;44.708;37.644;2024-03-25T09:49:02;23.58;24.19
75786;DHT22;64402;44.708;37.644;2024-03-25T09:51:31;23.88;24.28
75786;DHT22;64402;44.708;37.644;2024-03-25T09:53:58;24.10;25.34
75786;DHT22;64402;44.708;37.644;2024-03-25T09:56:24;24.86;23.62
75786;DHT22;64402;44.708;37.644;2024-03-25T09:58:51;25.10;22.23
75786;DHT22;64402;44.708;37.644;2024-03-25T10:01:17;25.35;22.77
75786;DHT22;64402;44.708;37.644;2024-03-25T10:03:44;25.68;21.73
75786;DHT22;64402;44.708;37.644;2024-03-25T10:06:10;25.42;21.48
75786;DHT22;64402;44.708;37.644;2024-03-25T10:08:37;25.48;21.92
75786;DHT22;64402;44.708;37.644;2024-03-25T10:11:03;23.53;25.62
75786;DHT22;64402;44.708;37.644;2024-03-25T10:13:30;23.46;23.46
75786;DHT22;64402;44.708;37.644;2024-03-25T10:15:57;24.06;25.02
75786;DHT22;64402;44.708;37.644;2024-03-25T10:18:24;25.09;22.27
75786;DHT22;64402;44.708;37.644;2024-03-25T10:20:51;25.78;21.65
75786;DHT22;64402;44.708;37.644;2024-03-25T10:23:21;25.13;22.02
75786;DHT22;64402;44.708;37.644;2024-03-25T10:25:48;25.82;22.24
75786;DHT22;64402;44.708;37.644;2024-03-25T10:28:14;26.39;20.11
75786;DHT22;64402;44.708;37.644;2024-03-25T10:30:41;27.14;18.99
75786;DHT22;64402;44.708;37.644;2024-03-25T10:33:08;27.32;18.21
75786;DHT22;64402;44.708;37.644;2024-03-25T10:35:35;26.81;18.44
75786;DHT22;64402;44.708;37.644;2024-03-25T10:38:04;27.13;17.13
75786;DHT22;64402;44.708;37.644;2024-03-25T10:40:32;27.37;18.44
75786;DHT22;64402;44.708;37.644;2024-03-25T10:43:03;28.18;16.17
75786;DHT22;64402;44.708;37.644;2024-03-25T10:45:37;27.95;14.75
75786;DHT22;64402;44.708;37.644;2024-03-25T10:48:21;27.57;17.27
75786;DHT22;64402;44.708;37.644;2024-03-25T10:50:51;27.79;15.94
75786;DHT22;64402;44.708;37.644;2024-03-25T10:53:20;28.61;13.70
75786;DHT22;64402;44.708;37.644;2024-03-25T10:55:47;28.00;13.85
75786;DHT22;64402;44.708;37.644;2024-03-25T10:58:17;27.90;13.14
75786;DHT22;64402;44.708;37.644;2024-03-25T11:00:45;28.47;12.90
75786;DHT22;64402;44.708;37.644;2024-03-25T11:03:12;29.07;12.10
75786;DHT22;64402;44.708;37.644;2024-03-25T11:05:39;29.08;12.20
75786;DHT22;64402;44.708;37.644;2024-03-25T11:08:09;29.35;12.11
75786;DHT22;64402;44.708;37.644;2024-03-25T11:10:40;28.59;11.56
75786;DHT22;64402;44.708;37.644;2024-03-25T11:13:13;28.55;11.76
75786;DHT22;64402;44.708;37.644;2024-03-25T11:15:43;29.53;11.28
75786;DHT22;64402;44.708;37.644;2024-03-25T11:18:13;30.45;10.39
75786;DHT22;64402;44.708;37.644;2024-03-25T11:20:40;31.19;9.88
75786;DHT22;64402;44.708;37.644;2024-03-25T11:23:10;31.90;8.80
75786;DHT22;64402;44.708;37.644;2024-03-25T11:25:38;31.26;9.14
75786;DHT22;64402;44.708;37.644;2024-03-25T11:28:05;32.03;8.93
75786;DHT22;64402;44.708;37.644;2024-03-25T11:30:31;32.08;8.74
75786;DHT22;64402;44.708;37.644;2024-03-25T11:33:02;30.74;9.92
75786;DHT22;64402;44.708;37.644;2024-03-25T11:35:29;31.21;9.52
75786;DHT22;64402;44.708;37.644;2024-03-25T11:37:55;30.66;9.62
75786;DHT22;64402;44.708;37.644;2024-03-25T11:40:21;31.18;10.02
75786;DHT22;64402;44.708;37.644;2024-03-25T11:42:48;31.24;9.88
75786;DHT22;64402;44.708;37.644;2024-03-25T11:45:21;29.95;10.51
75786;DHT22;64402;44.708;37.644;2024-03-25T11:47:49;30.44;11.07
75786;DHT22;64402;44.708;37.644;2024-03-25T11:50:19;29.97;11.36
75786;DHT22;64402;44.708;37.644;2024-03-25T11:52:46;30.92;11.00
75786;DHT22;64402;44.708;37.644;2024-03-25T11:55:16;30.98;9.67
75786;DHT22;64402;44.708;37.644;2024-03-25T11:57:43;31.24;9.69
75786;DHT22;64402;44.708;37.644;2024-03-25T12:00:10;30.39;10.80
75786;DHT22;64402;44.708;37.644;2024-03-25T12:02:43;31.07;11.04
75786;DHT22;64402;44.708;37.644;2024-03-25T12:05:11;31.33;9.93
75786;DHT22;64402;44.708;37.644;2024-03-25T12:07:38;32.02;9.88
75786;DHT22;64402;44.708;37.644;2024-03-25T12:10:04;32.23;10.55
75786;DHT22;64402;44.708;37.644;2024-03-25T12:12:49;32.86;9.17
75786;DHT22;64402;44.708;37.644;2024-03-25T12:15:16;32.68;9.77
75786;DHT22;64402;44.708;37.644;2024-03-25T12:17:43;32.26;8.60
75786;DHT22;64402;44.708;37.644;2024-03-25T12:20:09;31.71;9.94
75786;DHT22;64402;44.708;37.644;2024-03-25T12:22:40;32.33;8.48
75786;DHT22;64402;44.708;37.644;2024-03-25T12:25:07;32.70;8.43
75786;DHT22;64402;44.708;37.644;2024-03-25T12:27:38;31.90;8.73
75786;DHT22;64402;44.708;37.644;2024-03-25T12:30:07;30.84;10.02
75786;DHT22;64402;44.708;37.644;2024-03-25T12:32:40;30.68;10.33
75786;DHT22;64402;44.708;37.644;2024-03-25T12:35:12;29.93;9.70
75786;DHT22;64402;44.708;37.644;2024-03-25T12:37:39;29.79;11.33
75786;DHT22;64402;44.708;37.644;2024-03-25T12:40:06;30.36;9.74
75786;DHT22;64402;44.708;37.644;2024-03-25T12:42:39;30.37;9.71
75786;DHT22;64402;44.708;37.644;2024-03-25T12:45:06;31.20;9.40
75786;DHT22;64402;44.708;37.644;2024-03-25T12:47:33;32.35;8.31
75786;DHT22;64402;44.708;37.644;2024-03-25T12:49:59;31.72;8.60
75786;DHT22;64402;44.708;37.644;2024-03-25T12:52:26;32.18;8.83
75786;DHT22;64402;44.708;37.644;2024-03-25T12:54:52;32.47;8.03
75786;DHT22;64402;44.708;37.644;2024-03-25T12:57:18;33.27;8.06
75786;DHT22;64402;44.708;37.644;2024-03-25T12:59:44;31.04;8.20
75786;DHT22;64402;44.708;37.644;2024-03-25T13:02:12;29.64;10.14
75786;DHT22;64402;44.708;37.644;2024-03-25T13:04:39;30.63;9.33
75786;DHT22;64402;44.708;37.644;2024-03-25T13:07:07;30.34;9.96
75786;DHT22;64402;44.708;37.644;2024-03-25T13:09:33;29.34;11.03
75786;DHT22;64402;44.708;37.644;2024-03-25T13:12:00;27.72;11.75
75786;DHT22;64402;44.708;37.644;2024-03-25T13:14:29;26.09;14.48
75786;DHT22;64402;44.708;37.644;2024-03-25T13:16:55;26.40;13.43
75786;DHT22;64402;44.708;37.644;2024-03-25T13:19:22;28.53;12.60
75786;DHT22;64402;44.708;37.644;2024-03-25T13:21:48;29.73;11.01
75786;DHT22;64402;44.708;37.644;2024-03-25T13:24:15;30.56;9.61
75786;DHT22;64402;44.708;37.644;2024-03-25T13:26:41;30.36;10.75
75786;DHT22;64402;44.708;37.644;2024-03-25T13:29:08;31.66;9.53
75786;DHT22;64402;44.708;37.644;2024-03-25T13:31:34;32.49;8.99
75786;DHT22;64402;44.708;37.644;2024-03-25T13:34:01;31.58;8.60
75786;DHT22;64402;44.708;37.644;2024-03-25T13:36:28;31.51;9.49
75786;DHT22;64402;44.708;37.644;2024-03-25T13:38:55;31.85;9.30
75786;DHT22;64402;44.708;37.644;2024-03-25T13:41:21;32.37;9.48
75786;DHT22;64402;44.708;37.644;2024-03-25T13:43:50;32.98;8.59
75786;DHT22;64402;44.708;37.644;2024-03-25T13:46:16;33.40;7.96
75786;DHT22;64402;44.708;37.644;2024-03-25T13:48:43;32.83;7.67
75786;DHT22;64402;44.708;37.644;2024-03-25T13:51:09;32.86;8.02
75786;DHT22;64402;44.708;37.644;2024-03-25T13:53:36;32.24;8.60
75786;DHT22;64402;44.708;37.644;2024-03-25T13:56:02;31.86;8.84
75786;DHT22;64402;44.708;37.644;2024-03-25T13:58:29;31.01;10.15
75786;DHT22;64402;44.708;37.644;2024-03-25T14:00:55;32.30;9.23
75786;DHT22;64402;44.708;37.644;2024-03-25T14:03:22;32.20;8.98
75786;DHT22;64402;44.708;37.644;2024-03-25T14:05:48;32.25;8.99
75786;DHT22;64402;44.708;37.644;2024-03-25T14:08:14;30.48;10.83
75786;DHT22;64402;44.708;37.644;2024-03-25T14:10:43;29.96;11.21
75786;DHT22;64402;44.708;37.644;2024-03-25T14:13:10;30.17;11.13
75786;DHT22;64402;44.708;37.644;2024-03-25T14:15:36;30.49;11.14
75786;DHT22;64402;44.708;37.644;2024-03-25T14:18:03;30.72;10.53
75786;DHT22;64402;44.708;37.644;2024-03-25T14:20:30;30.99;9.85
75786;DHT22;64402;44.708;37.644;2024-03-25T14:22:56;31.25;10.50
75786;DHT22;64402;44.708;37.644;2024-03-25T14:25:23;31.46;9.79
75786;DHT22;64402;44.708;37.644;2024-03-25T14:27:50;31.42;9.27
75786;DHT22;64402;44.708;37.644;2024-03-25T14:30:16;29.77;10.79
75786;DHT22;64402;44.708;37.644;2024-03-25T14:32:42;29.31;11.40
75786;DHT22;64402;44.708;37.644;2024-03-25T14:35:09;28.04;13.35
75786;DHT22;64402;44.708;37.644;2024-03-25T14:37:35;26.30;15.42
75786;DHT22;64402;44.708;37.644;2024-03-25T14:40:02;26.20;15.82
75786;DHT22;64402;44.708;37.644;2024-03-25T14:42:29;24.54;17.99
75786;DHT22;64402;44.708;37.644;2024-03-25T14:44:56;23.20;20.28
75786;DHT22;64402;44.708;37.644;2024-03-25T14:47:23;22.04;23.54
75786;DHT22;64402;44.708;37.644;2024-03-25T14:49:49;21.14;24.96
75786;DHT22;64402;44.708;37.644;2024-03-25T14:52:16;20.49;25.69
75786;DHT22;64402;44.708;37.644;2024-03-25T14:54:42;19.89;27.00
75786;DHT22;64402;44.708;37.644;2024-03-25T14:57:09;19.50;28.98
75786;DHT22;64402;44.708;37.644;2024-03-25T14:59:35;19.08;28.80
75786;DHT22;64402;44.708;37.644;2024-03-25T15:02:02;18.61;29.15
75786;DHT22;64402;44.708;37.644;2024-03-25T15:04:29;18.11;29.48
75786;DHT22;64402;44.708;37.644;2024-03-25T15:06:56;17.55;29.87
75786;DHT22;64402;44.708;37.644;2024-03-25T15:09:23;17.29;31.46
75786;DHT22;64402;44.708;37.644;2024-03-25T15:11:49;16.94;31.48
75786;DHT22;64402;44.708;37.644;2024-03-25T15:14:16;16.81;35.25
75786;DHT22;64402;44.708;37.644;2024-03-25T15:16:42;16.50;37.49
75786;DHT22;64402;44.708;37.644;2024-03-25T15:19:09;16.22;39.90
75786;DHT22;64402;44.708;37.644;2024-03-25T15:21:35;16.08;42.14
75786;DHT22;64402;44.708;37.644;2024-03-25T15:24:05;15.88;42.55
75786;DHT22;64402;44.708;37.644;2024-03-25T15:26:31;15.56;43.37